createdAt,value
2023-05-10T00:00:51.978Z,3239.00
2023-05-10T00:01:51.991Z,3215.00
2023-05-10T00:02:52.169Z,3227.00
2023-05-10T00:03:52.013Z,3256.00
2023-05-10T00:04:51.966Z,3257.00
2023-05-10T00:05:51.952Z,3243.00
2023-05-10T00:06:51.964Z,3251.00
2023-05-10T00:07:51.986Z,3295.00
2023-05-10T00:08:51.990Z,3309.00
2023-05-10T00:09:51.974Z,3290.00
2023-05-10T00:10:51.969Z,3289.00
2023-05-10T00:11:51.989Z,3277.00
2023-05-10T00:12:52.050Z,3303.00
2023-05-10T00:13:51.965Z,3306.00
2023-05-10T00:14:51.994Z,3308.00
2023-05-10T00:15:51.972Z,3299.00
2023-05-10T00:16:52.112Z,3310.00
2023-05-10T00:17:52.056Z,3299.00
2023-05-10T00:18:51.989Z,3318.00
2023-05-10T00:19:51.953Z,3277.00
2023-05-10T00:20:51.958Z,3295.00
2023-05-10T00:21:51.941Z,3318.00
2023-05-10T00:22:51.948Z,3337.00
2023-05-10T00:23:51.968Z,3360.00
2023-05-10T00:24:51.966Z,3342.00
2023-05-10T00:25:51.959Z,3349.00
2023-05-10T00:26:51.956Z,3363.00
2023-05-10T00:27:51.954Z,3366.00
2023-05-10T00:28:51.933Z,3371.00
2023-05-10T00:29:51.949Z,3360.00
2023-05-10T00:30:51.938Z,3358.00
2023-05-10T00:31:51.999Z,3333.00
2023-05-10T00:32:52.021Z,3360.00
2023-05-10T00:33:51.944Z,3371.00
2023-05-10T00:34:51.926Z,3369.00
2023-05-10T00:35:51.944Z,3376.00
2023-05-10T00:36:51.946Z,3375.00
2023-05-10T00:37:51.921Z,3368.00
2023-05-10T00:38:51.932Z,3376.00
2023-05-10T00:39:51.919Z,3388.00
2023-05-10T00:40:51.931Z,3380.00
2023-05-10T00:41:51.961Z,3390.00
2023-05-10T00:42:51.963Z,3395.00
2023-05-10T00:43:51.932Z,3406.00
2023-05-10T00:44:51.897Z,3397.00
2023-05-10T00:45:51.983Z,3403.00
2023-05-10T00:46:51.930Z,3386.00
2023-05-10T00:47:51.942Z,3380.00
2023-05-10T00:48:51.908Z,3360.00
2023-05-10T00:49:51.905Z,3332.00
2023-05-10T00:50:51.873Z,3326.00
2023-05-10T00:51:51.881Z,3315.00
2023-05-10T00:52:51.892Z,3282.00
2023-05-10T00:53:51.879Z,3299.00
2023-05-10T00:54:51.881Z,3302.00
2023-05-10T00:55:51.865Z,3308.00
2023-05-10T00:56:51.855Z,3263.00
2023-05-10T00:57:51.867Z,3287.00
2023-05-10T00:58:51.870Z,3290.00
2023-05-10T00:59:51.851Z,3266.00
2023-05-10T01:00:51.841Z,3276.00
2023-05-10T01:01:51.826Z,3293.00
2023-05-10T01:02:51.943Z,3337.00
2023-05-10T01:03:51.778Z,3348.00
2023-05-10T01:04:51.832Z,3328.00
2023-05-10T01:05:51.794Z,3329.00
2023-05-10T01:06:51.769Z,3308.00
2023-05-10T01:07:51.801Z,3307.00
2023-05-10T01:08:51.766Z,3300.00
2023-05-10T01:09:51.767Z,3311.00
2023-05-10T01:10:51.752Z,3304.00
2023-05-10T01:11:51.732Z,3308.00
2023-05-10T01:12:51.780Z,3348.00
2023-05-10T01:13:51.719Z,3348.00
2023-05-10T01:14:51.729Z,3370.00
2023-05-10T01:15:51.774Z,3391.00
2023-05-10T01:16:51.778Z,3387.00
2023-05-10T01:17:52.036Z,3373.00
2023-05-10T01:18:51.668Z,3392.00
2023-05-10T01:19:51.695Z,3398.00
2023-05-10T01:20:51.674Z,3370.00
2023-05-10T01:21:51.700Z,3383.00
2023-05-10T01:22:51.693Z,3401.00
2023-05-10T01:23:51.678Z,3406.00
2023-05-10T01:24:51.696Z,3433.00
2023-05-10T01:25:51.677Z,3463.00
2023-05-10T01:26:51.652Z,3524.00
2023-05-10T01:27:51.658Z,3582.00
2023-05-10T01:28:51.663Z,3598.00
2023-05-10T01:30:05.085Z,3643.00
2023-05-10T01:30:52.596Z,3644.00
2023-05-10T01:31:51.602Z,3648.00
2023-05-10T01:32:51.659Z,3651.00
2023-05-10T01:33:51.487Z,3662.00
2023-05-10T01:34:51.475Z,3689.00
2023-05-10T01:35:51.449Z,3729.00
2023-05-10T01:36:51.379Z,3752.00
2023-05-10T01:37:51.350Z,3758.00
2023-05-10T01:38:51.292Z,3766.00
2023-05-10T01:39:51.271Z,3744.00
2023-05-10T01:40:51.202Z,3765.00
2023-05-10T01:41:51.190Z,3785.00
2023-05-10T01:42:51.153Z,3791.00
2023-05-10T01:43:51.188Z,3785.00
2023-05-10T01:44:51.188Z,3787.00
2023-05-10T01:45:51.206Z,3799.00
2023-05-10T01:46:51.264Z,3792.00
2023-05-10T01:47:51.212Z,3785.00
2023-05-10T01:48:51.229Z,3783.00
2023-05-10T01:49:51.204Z,3789.00
2023-05-10T01:50:51.225Z,3798.00
2023-05-10T01:51:51.236Z,3799.00
2023-05-10T01:52:51.272Z,3807.00
2023-05-10T01:53:51.283Z,3813.00
2023-05-10T01:54:51.307Z,3824.00
2023-05-10T01:55:51.310Z,3798.00
2023-05-10T01:56:51.335Z,3780.00
2023-05-10T01:57:51.300Z,3804.00
2023-05-10T01:58:51.331Z,3811.00
2023-05-10T01:59:51.332Z,3837.00
2023-05-10T02:00:51.369Z,3841.00
2023-05-10T02:01:51.368Z,3819.00
2023-05-10T02:02:51.470Z,3816.00
2023-05-10T02:03:51.446Z,3824.00
2023-05-10T02:04:51.452Z,3841.00
2023-05-10T02:05:51.475Z,3813.00
2023-05-10T02:06:51.471Z,3804.00
2023-05-10T02:07:51.516Z,3810.00
2023-05-10T02:08:51.487Z,3849.00
2023-05-10T02:09:51.497Z,3844.00
2023-05-10T02:10:51.469Z,3827.00
2023-05-10T02:11:51.482Z,3816.00
2023-05-10T02:12:51.551Z,3812.00
2023-05-10T02:13:51.521Z,3823.00
2023-05-10T02:14:51.528Z,3841.00
2023-05-10T02:15:51.563Z,3851.00
2023-05-10T02:16:51.651Z,3853.00
2023-05-10T02:17:51.647Z,3812.00
2023-05-10T02:18:51.637Z,3758.00
2023-05-10T02:19:51.618Z,3727.00
2023-05-10T02:20:51.623Z,3711.00
2023-05-10T02:21:51.640Z,3705.00
2023-05-10T02:22:51.711Z,3689.00
2023-05-10T02:23:51.679Z,3646.00
2023-05-10T02:24:51.670Z,3609.00
2023-05-10T02:25:51.709Z,3590.00
2023-05-10T02:26:51.685Z,3583.00
2023-05-10T02:27:51.707Z,3577.00
2023-05-10T02:28:51.737Z,3584.00
2023-05-10T02:29:51.706Z,3571.00
2023-05-10T02:30:51.718Z,3580.00
2023-05-10T02:31:51.769Z,3560.00
2023-05-10T02:32:51.861Z,3546.00
2023-05-10T02:33:51.791Z,3537.00
2023-05-10T02:34:51.808Z,3510.00
2023-05-10T02:35:51.864Z,3482.00
2023-05-10T02:36:51.841Z,3508.00
2023-05-10T02:37:51.902Z,3513.00
2023-05-10T02:38:51.918Z,3483.00
2023-05-10T02:39:51.922Z,3440.00
2023-05-10T02:40:51.942Z,3427.00
2023-05-10T02:41:51.935Z,3405.00
2023-05-10T02:42:51.969Z,3378.00
2023-05-10T02:43:51.939Z,3337.00
2023-05-10T02:44:51.964Z,3338.00
2023-05-10T02:45:52.059Z,3333.00
2023-05-10T02:46:51.984Z,3328.00
2023-05-10T02:47:52.037Z,3305.00
2023-05-10T02:48:51.969Z,3276.00
2023-05-10T02:49:51.952Z,3278.00
2023-05-10T02:50:51.957Z,3309.00
2023-05-10T02:51:52.004Z,3308.00
2023-05-10T02:52:51.959Z,3298.00
2023-05-10T02:53:51.969Z,3271.00
2023-05-10T02:54:51.977Z,3242.00
2023-05-10T02:55:51.942Z,3253.00
2023-05-10T02:56:51.979Z,3262.00
2023-05-10T02:57:51.964Z,3247.00
2023-05-10T02:58:51.985Z,3223.00
2023-05-10T02:59:51.945Z,3214.00
2023-05-10T03:00:51.990Z,3198.00
2023-05-10T03:01:52.042Z,3194.00
2023-05-10T03:02:52.139Z,3215.00
2023-05-10T03:03:52.000Z,3216.00
2023-05-10T03:04:52.118Z,3204.00
2023-05-10T03:05:52.015Z,3223.00
2023-05-10T03:06:52.027Z,3221.00
2023-05-10T03:07:52.039Z,3213.00
2023-05-10T03:08:52.045Z,3220.00
2023-05-10T03:09:52.077Z,3238.00
2023-05-10T03:10:52.107Z,3255.00
2023-05-10T03:11:52.106Z,3271.00
2023-05-10T03:12:52.144Z,3271.00
2023-05-10T03:13:52.140Z,3278.00
2023-05-10T03:14:52.119Z,3277.00
2023-05-10T03:15:52.173Z,3279.00
2023-05-10T03:16:52.155Z,3301.00
2023-05-10T03:17:52.203Z,3304.00
2023-05-10T03:18:52.172Z,3312.00
2023-05-10T03:19:52.196Z,3317.00
2023-05-10T03:20:52.213Z,3332.00
2023-05-10T03:21:52.221Z,3370.00
2023-05-10T03:22:52.218Z,3398.00
2023-05-10T03:23:52.217Z,3446.00
2023-05-10T03:24:52.218Z,3460.00
2023-05-10T03:25:52.260Z,3459.00
2023-05-10T03:26:52.280Z,3479.00
2023-05-10T03:27:52.315Z,3476.00
2023-05-10T03:28:52.331Z,3501.00
2023-05-10T03:29:52.320Z,3529.00
2023-05-10T03:30:52.311Z,3542.00
2023-05-10T03:31:52.458Z,3553.00
2023-05-10T03:32:52.420Z,3541.00
2023-05-10T03:33:52.365Z,3554.00
2023-05-10T03:34:52.389Z,3566.00
2023-05-10T03:35:52.426Z,3566.00
2023-05-10T03:36:52.399Z,3572.00
2023-05-10T03:37:52.438Z,3585.00
2023-05-10T03:38:52.405Z,3603.00
2023-05-10T03:39:52.453Z,3586.00
2023-05-10T03:40:52.444Z,3595.00
2023-05-10T03:41:52.561Z,3598.00
2023-05-10T03:42:52.497Z,3609.00
2023-05-10T03:43:52.458Z,3616.00
2023-05-10T03:44:52.479Z,3623.00
2023-05-10T03:45:52.495Z,3596.00
2023-05-10T03:46:52.569Z,3572.00
2023-05-10T03:47:52.568Z,3533.00
2023-05-10T03:48:52.562Z,3505.00
2023-05-10T03:49:52.577Z,3486.00
2023-05-10T03:50:52.596Z,3444.00
2023-05-10T03:51:52.603Z,3392.00
2023-05-10T03:52:54.110Z,3376.00
2023-05-10T03:53:52.623Z,3341.00
2023-05-10T03:54:52.617Z,3313.00
2023-05-10T03:55:52.633Z,3298.00
2023-05-10T03:56:52.648Z,3288.00
2023-05-10T03:57:52.669Z,3287.00
2023-05-10T03:58:52.655Z,3269.00
2023-05-10T03:59:52.712Z,3263.00
2023-05-10T04:00:52.622Z,3248.00
2023-05-10T04:01:52.719Z,3217.00
2023-05-10T04:02:52.767Z,3211.00
2023-05-10T04:03:52.763Z,3191.00
2023-05-10T04:04:52.644Z,3183.00
2023-05-10T04:05:52.739Z,3155.00
2023-05-10T04:06:52.627Z,3113.00
2023-05-10T04:07:52.621Z,3119.00
2023-05-10T04:08:52.625Z,3129.00
2023-05-10T04:09:52.644Z,3114.00
2023-05-10T04:10:52.617Z,3116.00
2023-05-10T04:11:52.600Z,3116.00
2023-05-10T04:12:52.696Z,3128.00
2023-05-10T04:13:52.595Z,3115.00
2023-05-10T04:14:52.602Z,3132.00
2023-05-10T04:15:52.583Z,3134.00
2023-05-10T04:16:52.576Z,3148.00
2023-05-10T04:17:52.597Z,3135.00
2023-05-10T04:18:52.611Z,3105.00
2023-05-10T04:19:52.611Z,3092.00
2023-05-10T04:20:52.596Z,3068.00
2023-05-10T04:21:52.570Z,3071.00
2023-05-10T04:22:52.577Z,3098.00
2023-05-10T04:23:52.616Z,3114.00
2023-05-10T04:24:52.621Z,3103.00
2023-05-10T04:25:52.633Z,3074.00
2023-05-10T04:26:52.636Z,3059.00
2023-05-10T04:27:52.661Z,3055.00
2023-05-10T04:28:52.654Z,3067.00
2023-05-10T04:29:52.627Z,3066.00
2023-05-10T04:30:52.716Z,3087.00
2023-05-10T04:31:52.645Z,3104.00
2023-05-10T04:32:52.699Z,3122.00
2023-05-10T04:33:52.682Z,3123.00
2023-05-10T04:34:52.705Z,3120.00
2023-05-10T04:35:52.745Z,3115.00
2023-05-10T04:36:52.736Z,3089.00
2023-05-10T04:37:52.752Z,3059.00
2023-05-10T04:38:52.800Z,3088.00
2023-05-10T04:39:52.773Z,3089.00
2023-05-10T04:40:52.807Z,3107.00
2023-05-10T04:41:52.921Z,3115.00
2023-05-10T04:42:52.815Z,3151.00
2023-05-10T04:43:52.826Z,3153.00
2023-05-10T04:44:52.847Z,3159.00
2023-05-10T04:45:52.884Z,3158.00
2023-05-10T04:46:52.833Z,3176.00
2023-05-10T04:47:53.024Z,3179.00
2023-05-10T04:48:52.878Z,3151.00
2023-05-10T04:49:52.876Z,3144.00
2023-05-10T04:50:52.877Z,3126.00
2023-05-10T04:51:52.899Z,3139.00
2023-05-10T04:52:53.353Z,3127.00
2023-05-10T04:54:05.159Z,3095.00
2023-05-10T04:54:53.864Z,3096.00
2023-05-10T04:55:52.856Z,3098.00
2023-05-10T04:56:52.816Z,3100.00
2023-05-10T04:57:52.797Z,3101.00
2023-05-10T04:58:52.726Z,3084.00
2023-05-10T04:59:52.710Z,3078.00
2023-05-10T05:01:01.106Z,3077.00
2023-05-10T05:01:52.752Z,3079.00
2023-05-10T05:02:52.865Z,3081.00
2023-05-10T05:03:52.881Z,3083.00
2023-05-10T05:04:52.809Z,3066.00
2023-05-10T05:05:52.801Z,3040.00
2023-05-10T05:06:53.914Z,3030.00
2023-05-10T05:07:52.793Z,3010.00
2023-05-10T05:08:52.834Z,3019.00
2023-05-10T05:09:52.831Z,3009.00
2023-05-10T05:10:52.853Z,2984.00
2023-05-10T05:11:52.845Z,2948.00
2023-05-10T05:12:52.908Z,2928.00
2023-05-10T05:13:52.870Z,2917.00
2023-05-10T05:14:52.872Z,2913.00
2023-05-10T05:15:52.847Z,2896.00
2023-05-10T05:16:52.912Z,2919.00
2023-05-10T05:17:52.913Z,2947.00
2023-05-10T05:18:52.857Z,2920.00
2023-05-10T05:19:52.876Z,2898.00
2023-05-10T05:20:52.927Z,2908.00
2023-05-10T05:21:52.924Z,2899.00
2023-05-10T05:22:52.900Z,2896.00
2023-05-10T05:23:52.933Z,2895.00
2023-05-10T05:24:52.902Z,2897.00
2023-05-10T05:25:52.892Z,2916.00
2023-05-10T05:26:52.930Z,2926.00
2023-05-10T05:27:52.884Z,2929.00
2023-05-10T05:28:52.882Z,2926.00
2023-05-10T05:29:52.845Z,2942.00
2023-05-10T05:30:52.900Z,2969.00
2023-05-10T05:31:55.336Z,2957.00
2023-05-10T05:32:53.114Z,2967.00
2023-05-10T05:33:53.603Z,2998.00
2023-05-10T05:34:53.167Z,3049.00
2023-05-10T05:35:53.170Z,3123.00
2023-05-10T05:36:53.172Z,3215.00
2023-05-10T05:37:53.171Z,3274.00
2023-05-10T05:38:53.602Z,3319.00
2023-05-10T05:39:53.377Z,3426.00
2023-05-10T05:40:53.264Z,3804.00
2023-05-10T05:41:53.271Z,3878.00
2023-05-10T05:42:53.230Z,3896.00
2023-05-10T05:43:53.600Z,3942.00
2023-05-10T05:44:53.298Z,3965.00
2023-05-10T05:46:00.350Z,3964.00
2023-05-10T05:46:53.350Z,3966.00
2023-05-10T05:47:53.339Z,3966.00
2023-05-10T05:48:53.636Z,3956.00
2023-05-10T05:49:53.126Z,3902.00
2023-05-10T05:50:53.129Z,3875.00
2023-05-10T05:51:53.108Z,3913.00
2023-05-10T05:52:53.057Z,3959.00
2023-05-10T05:53:53.106Z,3915.00
2023-05-10T05:54:53.017Z,3906.00
2023-05-10T05:55:52.972Z,3830.00
2023-05-10T05:56:52.928Z,3823.00
2023-05-10T05:57:52.909Z,4381.00
2023-05-10T05:58:53.177Z,4189.00
2023-05-10T05:59:52.852Z,4015.00
2023-05-10T06:00:52.833Z,3860.00
2023-05-10T06:01:52.791Z,3726.00
2023-05-10T06:02:52.817Z,3694.00
2023-05-10T06:03:53.546Z,3605.00
2023-05-10T06:04:52.725Z,3370.00
2023-05-10T06:05:52.686Z,3243.00
2023-05-10T06:06:52.650Z,3154.00
2023-05-10T06:07:52.737Z,3118.00
2023-05-10T06:08:52.623Z,3086.00
2023-05-10T06:09:52.623Z,3050.00
2023-05-10T06:10:52.581Z,3028.00
2023-05-10T06:11:52.533Z,3001.00
2023-05-10T06:12:52.540Z,3014.00
2023-05-10T06:13:52.534Z,3076.00
2023-05-10T06:14:52.548Z,3099.00
2023-05-10T06:15:52.557Z,3106.00
2023-05-10T06:16:52.688Z,3107.00
2023-05-10T06:17:52.568Z,3150.00
2023-05-10T06:18:52.526Z,3152.00
2023-05-10T06:19:52.623Z,3128.00
2023-05-10T06:20:52.528Z,3137.00
2023-05-10T06:21:53.842Z,3140.00
2023-05-10T06:22:52.513Z,3152.00
2023-05-10T06:23:52.497Z,3147.00
2023-05-10T06:24:52.502Z,3161.00
2023-05-10T06:25:52.489Z,3142.00
2023-05-10T06:26:52.448Z,3144.00
2023-05-10T06:27:53.977Z,3136.00
2023-05-10T06:28:52.469Z,3108.00
2023-05-10T06:30:02.198Z,3057.00
2023-05-10T06:30:53.428Z,3058.00
2023-05-10T06:31:52.507Z,3059.00
2023-05-10T06:32:52.386Z,3051.00
2023-05-10T06:33:53.290Z,3052.00
2023-05-10T06:34:52.294Z,3010.00
2023-05-10T06:35:52.277Z,3010.00
2023-05-10T06:36:52.226Z,3022.00
2023-05-10T06:37:52.215Z,2993.00
2023-05-10T06:38:52.313Z,2992.00
2023-05-10T06:39:52.189Z,3012.00
2023-05-10T06:40:52.122Z,3010.00
2023-05-10T06:41:52.110Z,2988.00
2023-05-10T06:42:52.108Z,3030.00
2023-05-10T06:43:52.082Z,3060.00
2023-05-10T06:44:52.072Z,3092.00
2023-05-10T06:45:52.061Z,3089.00
2023-05-10T06:46:52.039Z,3093.00
2023-05-10T06:47:52.017Z,3085.00
2023-05-10T06:48:51.995Z,3054.00
2023-05-10T06:49:52.157Z,3037.00
2023-05-10T06:50:51.981Z,3008.00
2023-05-10T06:51:51.919Z,2997.00
2023-05-10T06:52:53.191Z,2985.00
2023-05-10T06:53:51.931Z,2981.00
2023-05-10T06:54:51.932Z,3007.00
2023-05-10T06:55:51.904Z,3014.00
2023-05-10T06:56:51.948Z,3006.00
2023-05-10T06:57:51.927Z,3036.00
2023-05-10T06:58:51.923Z,3018.00
2023-05-10T06:59:51.917Z,3021.00
2023-05-10T07:00:51.941Z,3014.00
2023-05-10T07:01:51.889Z,3006.00
2023-05-10T07:02:51.902Z,2993.00
2023-05-10T07:03:51.893Z,2959.00
2023-05-10T07:04:51.935Z,2965.00
2023-05-10T07:05:51.915Z,2936.00
2023-05-10T07:06:51.906Z,2914.00
2023-05-10T07:07:51.866Z,2856.00
2023-05-10T07:08:51.880Z,2808.00
2023-05-10T07:09:51.896Z,2764.00
2023-05-10T07:10:51.906Z,2732.00
2023-05-10T07:11:51.893Z,2729.00
2023-05-10T07:12:51.943Z,2756.00
2023-05-10T07:13:51.898Z,2726.00
2023-05-10T07:14:52.147Z,2672.00
2023-05-10T07:15:51.897Z,2657.00
2023-05-10T07:16:51.867Z,2617.00
2023-05-10T07:17:51.927Z,2581.00
2023-05-10T07:18:51.887Z,2556.00
2023-05-10T07:19:51.849Z,2430.00
2023-05-10T07:20:51.889Z,2341.00
2023-05-10T07:21:51.883Z,2226.00
2023-05-10T07:22:51.869Z,2092.00
2023-05-10T07:23:51.882Z,2050.00
2023-05-10T07:24:51.809Z,1999.00
2023-05-10T07:25:51.790Z,1890.00
2023-05-10T07:26:51.782Z,1834.00
2023-05-10T07:27:51.846Z,1757.00
2023-05-10T07:28:51.763Z,1748.00
2023-05-10T07:29:52.157Z,1820.00
2023-05-10T07:30:51.796Z,1832.00
2023-05-10T07:31:51.738Z,1830.00
2023-05-10T07:32:51.766Z,1802.00
2023-05-10T07:33:51.753Z,1771.00
2023-05-10T07:34:51.698Z,1700.00
2023-05-10T07:35:51.689Z,1604.00
2023-05-10T07:36:51.699Z,1544.00
2023-05-10T07:37:51.732Z,1562.00
2023-05-10T07:38:51.707Z,1589.00
2023-05-10T07:39:51.707Z,1557.00
2023-05-10T07:40:51.686Z,1583.00
2023-05-10T07:41:51.666Z,1633.00
2023-05-10T07:42:51.640Z,1641.00
2023-05-10T07:43:51.654Z,1633.00
2023-05-10T07:44:51.640Z,1628.00
2023-05-10T07:45:52.280Z,1654.00
2023-05-10T07:46:51.766Z,1619.00
2023-05-10T07:47:51.682Z,1620.00
2023-05-10T07:48:51.669Z,1664.00
2023-05-10T07:49:51.661Z,1655.00
2023-05-10T07:50:51.693Z,1589.00
2023-05-10T07:51:51.698Z,1477.00
2023-05-10T07:52:51.685Z,1510.00
2023-05-10T07:53:51.706Z,1494.00
2023-05-10T07:54:51.724Z,1566.00
2023-05-10T07:55:51.682Z,1593.00
2023-05-10T07:56:51.692Z,1583.00
2023-05-10T07:57:51.738Z,1507.00
2023-05-10T07:58:51.727Z,1466.00
2023-05-10T07:59:51.706Z,1411.00
2023-05-10T08:00:51.693Z,1305.00
2023-05-10T08:01:51.732Z,1262.00
2023-05-10T08:02:51.848Z,1250.00
2023-05-10T08:03:51.722Z,1382.00
2023-05-10T08:04:51.682Z,1446.00
2023-05-10T08:05:51.734Z,1515.00
2023-05-10T08:06:51.744Z,1574.00
2023-05-10T08:07:51.759Z,1490.00
2023-05-10T08:08:51.807Z,1408.00
2023-05-10T08:09:51.770Z,1377.00
2023-05-10T08:10:52.146Z,1371.00
2023-05-10T08:11:51.789Z,1418.00
2023-05-10T08:12:51.787Z,1487.00
2023-05-10T08:13:51.756Z,1531.00
2023-05-10T08:14:51.813Z,1514.00
2023-05-10T08:15:52.202Z,1550.00
2023-05-10T08:16:51.811Z,1564.00
2023-05-10T08:17:51.849Z,1563.00
2023-05-10T08:18:51.972Z,1604.00
2023-05-10T08:19:51.834Z,1636.00
2023-05-10T08:20:51.848Z,1682.00
2023-05-10T08:21:51.860Z,1697.00
2023-05-10T08:22:52.077Z,1738.00
2023-05-10T08:23:51.868Z,1814.00
2023-05-10T08:24:51.858Z,1816.00
2023-05-10T08:25:51.932Z,1826.00
2023-05-10T08:26:51.942Z,1881.00
2023-05-10T08:27:51.920Z,2041.00
2023-05-10T08:28:52.020Z,2307.00
2023-05-10T08:29:52.005Z,2561.00
2023-05-10T08:30:52.217Z,2567.00
2023-05-10T08:31:52.132Z,2620.00
2023-05-10T08:32:52.046Z,2794.00
2023-05-10T08:33:51.987Z,3090.00
2023-05-10T08:34:52.007Z,3370.00
2023-05-10T08:35:52.188Z,3503.00
2023-05-10T08:36:51.988Z,3504.00
2023-05-10T08:37:51.999Z,3651.00
2023-05-10T08:38:52.181Z,3691.00
2023-05-10T08:39:52.050Z,3697.00
2023-05-10T08:40:52.170Z,3355.00
2023-05-10T08:41:52.001Z,3347.00
2023-05-10T08:42:52.019Z,2984.00
2023-05-10T08:43:52.069Z,2893.00
2023-05-10T08:44:52.033Z,3033.00
2023-05-10T08:45:52.410Z,3118.00
2023-05-10T08:46:52.067Z,3105.00
2023-05-10T08:47:52.059Z,3260.00
2023-05-10T08:48:52.035Z,3330.00
2023-05-10T08:49:52.025Z,3397.00
2023-05-10T08:50:52.179Z,3210.00
2023-05-10T08:51:52.098Z,3048.00
2023-05-10T08:52:52.058Z,2691.00
2023-05-10T08:53:52.027Z,2564.00
2023-05-10T08:54:52.076Z,2455.00
2023-05-10T08:55:52.036Z,2335.00
2023-05-10T08:56:52.052Z,2615.00
2023-05-10T08:57:52.086Z,2641.00
2023-05-10T08:58:52.092Z,2608.00
2023-05-10T08:59:52.059Z,2511.00
2023-05-10T09:00:52.259Z,2415.00
2023-05-10T09:01:52.054Z,2513.00
2023-05-10T09:02:52.163Z,2584.00
2023-05-10T09:03:52.234Z,2601.00
2023-05-10T09:04:52.266Z,2610.00
2023-05-10T09:05:52.182Z,2854.00
2023-05-10T09:06:52.078Z,2994.00
2023-05-10T09:07:52.055Z,3183.00
2023-05-10T09:08:52.065Z,3298.00
2023-05-10T09:09:52.060Z,3384.00
2023-05-10T09:10:52.171Z,3449.00
2023-05-10T09:11:52.081Z,3522.00
2023-05-10T09:12:52.110Z,3636.00
2023-05-10T09:13:52.184Z,3650.00
2023-05-10T09:14:52.108Z,3658.00
2023-05-10T09:15:52.159Z,3644.00
2023-05-10T09:16:52.160Z,3680.00
2023-05-10T09:17:52.160Z,3692.00
2023-05-10T09:18:52.188Z,3726.00
2023-05-10T09:19:52.230Z,3751.00
2023-05-10T09:20:52.710Z,3742.00
2023-05-10T09:21:52.273Z,3779.00
2023-05-10T09:22:52.284Z,3793.00
2023-05-10T09:23:52.251Z,3798.00
2023-05-10T09:24:52.286Z,3761.00
2023-05-10T09:25:52.324Z,3777.00
2023-05-10T09:26:52.350Z,3831.00
2023-05-10T09:27:52.341Z,3809.00
2023-05-10T09:28:52.314Z,3760.00
2023-05-10T09:29:52.358Z,3766.00
2023-05-10T09:30:52.763Z,3788.00
2023-05-10T09:31:52.351Z,3761.00
2023-05-10T09:32:52.400Z,3793.00
2023-05-10T09:33:52.358Z,3814.00
2023-05-10T09:34:52.377Z,3798.00
2023-05-10T09:35:52.383Z,3769.00
2023-05-10T09:36:52.399Z,3689.00
2023-05-10T09:37:52.391Z,3644.00
2023-05-10T09:38:52.409Z,3686.00
2023-05-10T09:39:52.395Z,3731.00
2023-05-10T09:40:52.684Z,3726.00
2023-05-10T09:41:52.417Z,3621.00
2023-05-10T09:42:52.463Z,3561.00
2023-05-10T09:43:52.472Z,3556.00
2023-05-10T09:44:52.446Z,3540.00
2023-05-10T09:45:52.500Z,3561.00
2023-05-10T09:46:52.484Z,3591.00
2023-05-10T09:47:52.496Z,3636.00
2023-05-10T09:48:52.486Z,3634.00
2023-05-10T09:49:52.475Z,3430.00
2023-05-10T09:50:52.740Z,3365.00
2023-05-10T09:51:52.497Z,3232.00
2023-05-10T09:52:52.480Z,3150.00
2023-05-10T09:53:52.513Z,3146.00
2023-05-10T09:54:53.451Z,3052.00
2023-05-10T09:55:52.418Z,3039.00
2023-05-10T09:56:52.698Z,3064.00
2023-05-10T09:57:52.353Z,2842.00
2023-05-10T09:58:52.311Z,2701.00
2023-05-10T09:59:52.320Z,2691.00
2023-05-10T10:00:52.262Z,2658.00
2023-05-10T10:01:52.318Z,2684.00
2023-05-10T10:02:52.210Z,2738.00
2023-05-10T10:03:52.168Z,2738.00
2023-05-10T10:04:52.155Z,2693.00
2023-05-10T10:05:52.159Z,2571.00
2023-05-10T10:06:52.164Z,2531.00
2023-05-10T10:07:52.177Z,2549.00
2023-05-10T10:08:52.190Z,2640.00
2023-05-10T10:09:52.223Z,2496.00
2023-05-10T10:10:52.295Z,2500.00
2023-05-10T10:11:52.755Z,2451.00
2023-05-10T10:12:52.298Z,2373.00
2023-05-10T10:13:52.242Z,2328.00
2023-05-10T10:14:52.247Z,2385.00
2023-05-10T10:15:52.382Z,2464.00
2023-05-10T10:17:05.546Z,2356.00
2023-05-10T10:17:53.297Z,2273.00
2023-05-10T10:18:52.265Z,2057.00
2023-05-10T10:19:52.264Z,1944.00
2023-05-10T10:20:52.279Z,1803.00
2023-05-10T10:21:52.329Z,1644.00
2023-05-10T10:22:52.283Z,1501.00
2023-05-10T10:23:52.279Z,1463.00
2023-05-10T10:24:52.297Z,1526.00
2023-05-10T10:25:52.345Z,1724.00
2023-05-10T10:26:52.314Z,1793.00
2023-05-10T10:27:52.293Z,1748.00
2023-05-10T10:28:52.282Z,1564.00
2023-05-10T10:29:52.301Z,1467.00
2023-05-10T10:30:52.299Z,1244.00
2023-05-10T10:31:52.355Z,975.00
2023-05-10T10:32:52.273Z,843.00
2023-05-10T10:33:52.321Z,815.00
2023-05-10T10:34:52.298Z,1033.00
2023-05-10T10:35:52.301Z,1122.00
2023-05-10T10:36:52.712Z,1019.00
2023-05-10T10:37:52.358Z,961.00
2023-05-10T10:38:52.350Z,958.00
2023-05-10T10:39:52.356Z,1012.00
2023-05-10T10:40:52.371Z,996.00
2023-05-10T10:41:52.717Z,1150.00
2023-05-10T10:42:52.376Z,1329.00
2023-05-10T10:43:52.405Z,1318.00
2023-05-10T10:44:52.425Z,1264.00
2023-05-10T10:45:52.464Z,1240.00
2023-05-10T10:46:52.873Z,1210.00
2023-05-10T10:47:52.555Z,1258.00
2023-05-10T10:48:52.657Z,1217.00
2023-05-10T10:49:52.596Z,1183.00
2023-05-10T10:50:52.595Z,1254.00
2023-05-10T10:51:52.610Z,1247.00
2023-05-10T10:52:52.682Z,1226.00
2023-05-10T10:53:52.716Z,1189.00
2023-05-10T10:54:52.725Z,1196.00
2023-05-10T10:55:52.713Z,1736.00
2023-05-10T10:56:52.746Z,1988.00
2023-05-10T10:57:52.807Z,1959.00
2023-05-10T10:58:52.798Z,1777.00
2023-05-10T10:59:52.760Z,1736.00
2023-05-10T11:00:52.835Z,1552.00
2023-05-10T11:01:52.882Z,1420.00
2023-05-10T11:02:52.917Z,1197.00
2023-05-10T11:03:52.955Z,1065.00
2023-05-10T11:04:52.977Z,914.00
2023-05-10T11:05:52.998Z,860.00
2023-05-10T11:06:53.262Z,714.00
2023-05-10T11:07:53.035Z,685.00
2023-05-10T11:08:53.099Z,678.00
2023-05-10T11:09:53.099Z,662.00
2023-05-10T11:10:53.213Z,725.00
2023-05-10T11:11:53.130Z,773.00
2023-05-10T11:12:53.220Z,772.00
2023-05-10T11:13:53.286Z,752.00
2023-05-10T11:14:53.311Z,731.00
2023-05-10T11:15:53.280Z,733.00
2023-05-10T11:16:53.399Z,853.00
2023-05-10T11:17:53.373Z,794.00
2023-05-10T11:18:53.436Z,797.00
2023-05-10T11:19:53.422Z,836.00
2023-05-10T11:20:53.410Z,1105.00
2023-05-10T11:21:53.470Z,2004.00
2023-05-10T11:22:53.471Z,2253.00
2023-05-10T11:23:53.517Z,2572.00
2023-05-10T11:24:53.560Z,2696.00
2023-05-10T11:25:53.432Z,2592.00
2023-05-10T11:26:53.428Z,2690.00
2023-05-10T11:27:53.751Z,2716.00
2023-05-10T11:28:53.448Z,2729.00
2023-05-10T11:29:53.418Z,2722.00
2023-05-10T11:30:53.534Z,2770.00
2023-05-10T11:31:53.694Z,2789.00
2023-05-10T11:32:53.775Z,2848.00
2023-05-10T11:33:54.247Z,2871.00
2023-05-10T11:34:53.385Z,2878.00
2023-05-10T11:35:53.462Z,2920.00
2023-05-10T11:36:53.940Z,2994.00
2023-05-10T11:37:53.764Z,3017.00
2023-05-10T11:38:53.370Z,3031.00
2023-05-10T11:39:54.239Z,3066.00
2023-05-10T11:40:53.382Z,3096.00
2023-05-10T11:41:53.392Z,3049.00
2023-05-10T11:42:53.390Z,2997.00
2023-05-10T11:43:53.414Z,2985.00
2023-05-10T11:44:53.402Z,3009.00
2023-05-10T11:45:53.410Z,3048.00
2023-05-10T11:46:53.415Z,3082.00
2023-05-10T11:47:53.454Z,3052.00
2023-05-10T11:48:53.387Z,3005.00
2023-05-10T11:49:53.436Z,2893.00
2023-05-10T11:50:53.411Z,2825.00
2023-05-10T11:51:53.453Z,2823.00
2023-05-10T11:52:53.403Z,2822.00
2023-05-10T11:53:53.424Z,2799.00
2023-05-10T11:54:53.435Z,2722.00
2023-05-10T11:55:53.416Z,2659.00
2023-05-10T11:56:53.440Z,2651.00
2023-05-10T11:57:53.432Z,2683.00
2023-05-10T11:58:53.460Z,2613.00
2023-05-10T11:59:53.448Z,2518.00
2023-05-10T12:00:53.409Z,2480.00
2023-05-10T12:01:53.415Z,2430.00
2023-05-10T12:02:53.481Z,2418.00
2023-05-10T12:03:53.462Z,2415.00
2023-05-10T12:04:53.396Z,2421.00
2023-05-10T12:05:53.377Z,2407.00
2023-05-10T12:06:53.405Z,2395.00